createdAt,value
2023-03-11T00:00:30.250Z,21.07
2023-03-11T00:01:34.555Z,21.06
2023-03-11T00:02:38.850Z,21.07
2023-03-11T00:03:43.132Z,21.07
2023-03-11T00:04:47.458Z,21.05
2023-03-11T00:05:51.720Z,21.08
2023-03-11T00:06:56.026Z,21.04
2023-03-11T00:08:00.291Z,21.03
2023-03-11T00:09:04.567Z,21.03
2023-03-11T00:10:08.820Z,21.02
2023-03-11T00:11:13.116Z,21.02
2023-03-11T00:12:17.369Z,21.05
2023-03-11T00:13:21.754Z,21.04
2023-03-11T00:14:26.316Z,21.04
2023-03-11T00:15:30.596Z,21.02
2023-03-11T00:16:34.910Z,21.03
2023-03-11T00:17:39.533Z,21.01
2023-03-11T00:18:43.869Z,21
2023-03-11T00:19:48.164Z,20.99
2023-03-11T00:20:52.472Z,20.97
2023-03-11T00:21:56.764Z,20.97
2023-03-11T00:23:01.049Z,20.99
2023-03-11T00:24:05.324Z,20.98
2023-03-11T00:25:09.592Z,21.01
2023-03-11T00:26:13.897Z,21
2023-03-11T00:27:18.187Z,20.99
2023-03-11T00:28:22.520Z,20.98
2023-03-11T00:29:26.819Z,20.99
2023-03-11T00:30:31.147Z,20.96
2023-03-11T00:31:35.582Z,20.96
2023-03-11T00:32:39.923Z,20.93
2023-03-11T00:33:44.397Z,20.93
2023-03-11T00:34:48.650Z,20.97
2023-03-11T00:35:52.984Z,20.94
2023-03-11T00:36:57.386Z,20.93
2023-03-11T00:38:01.796Z,20.93
2023-03-11T00:39:06.152Z,20.93
2023-03-11T00:40:10.422Z,20.92
2023-03-11T00:41:14.722Z,20.95
2023-03-11T00:42:18.996Z,20.93
2023-03-11T00:43:23.239Z,20.91
2023-03-11T00:44:27.557Z,20.93
2023-03-11T00:45:31.834Z,20.95
2023-03-11T00:46:36.251Z,20.93
2023-03-11T00:47:40.770Z,20.93
2023-03-11T00:48:45.072Z,20.92
2023-03-11T00:49:49.369Z,20.9
2023-03-11T00:50:53.675Z,20.9
2023-03-11T00:51:57.937Z,20.91
2023-03-11T00:53:02.248Z,20.91
2023-03-11T00:54:06.521Z,20.94
2023-03-11T00:55:10.834Z,21
2023-03-11T00:56:15.200Z,20.97
2023-03-11T00:57:19.492Z,20.93
2023-03-11T00:58:23.824Z,20.92
2023-03-11T00:59:28.079Z,20.9
2023-03-11T01:00:32.369Z,20.91
2023-03-11T01:01:36.733Z,20.93
2023-03-11T01:02:41.295Z,20.91
2023-03-11T01:03:45.557Z,20.92
2023-03-11T01:04:49.882Z,20.91
2023-03-11T01:05:54.452Z,20.89
2023-03-11T01:06:58.794Z,20.92
2023-03-11T01:08:03.049Z,20.94
2023-03-11T01:09:07.340Z,20.92
2023-03-11T01:10:11.637Z,20.92
2023-03-11T01:11:15.912Z,20.92
2023-03-11T01:12:20.268Z,20.91
2023-03-11T01:13:24.541Z,20.98
2023-03-11T01:14:28.779Z,21.01
2023-03-11T01:15:33.229Z,20.99
2023-03-11T01:16:37.815Z,20.94
2023-03-11T01:17:42.082Z,20.91
2023-03-11T01:18:46.331Z,20.88
2023-03-11T01:19:50.596Z,20.87
2023-03-11T01:20:54.864Z,20.9
2023-03-11T01:21:59.138Z,20.86
2023-03-11T01:23:03.451Z,20.9
2023-03-11T01:24:07.735Z,20.89
2023-03-11T01:25:12.028Z,20.89
2023-03-11T01:26:16.302Z,20.87
2023-03-11T01:27:20.589Z,20.87
2023-03-11T01:28:28.051Z,20.86
2023-03-11T01:29:32.323Z,20.91
2023-03-11T01:30:36.574Z,20.9
2023-03-11T01:31:40.846Z,20.9
2023-03-11T01:32:45.244Z,20.91
2023-03-11T01:33:49.793Z,20.92
2023-03-11T01:34:54.086Z,20.92
2023-03-11T01:35:58.435Z,20.89
2023-03-11T01:37:02.901Z,20.89
2023-03-11T01:38:07.193Z,20.87
2023-03-11T01:39:11.458Z,20.84
2023-03-11T01:40:15.740Z,20.82
2023-03-11T01:41:21.046Z,20.83
2023-03-11T01:42:25.294Z,20.84
2023-03-11T01:43:29.666Z,20.83
2023-03-11T01:44:33.916Z,20.81
2023-03-11T01:45:38.273Z,20.83
2023-03-11T01:46:42.570Z,20.81
2023-03-11T01:47:47.001Z,20.82
2023-03-11T01:48:51.268Z,20.83
2023-03-11T01:49:55.573Z,20.81
2023-03-11T01:50:59.870Z,20.8
2023-03-11T01:52:04.153Z,20.81
2023-03-11T01:53:09.750Z,20.81
2023-03-11T01:54:14.018Z,20.79
2023-03-11T01:55:18.415Z,20.79
2023-03-11T01:56:22.712Z,20.78
2023-03-11T01:57:26.950Z,20.79
2023-03-11T01:58:31.256Z,20.82
2023-03-11T01:59:35.577Z,20.8
2023-03-11T02:00:39.881Z,20.78
2023-03-11T02:01:44.215Z,20.78
2023-03-11T02:02:48.694Z,20.81
2023-03-11T02:03:53.141Z,20.82
2023-03-11T02:04:57.424Z,20.81
2023-03-11T02:06:01.680Z,20.79
2023-03-11T02:07:05.996Z,20.79
2023-03-11T02:08:10.302Z,20.82
2023-03-11T02:09:14.593Z,20.83
2023-03-11T02:10:18.872Z,20.82
2023-03-11T02:11:23.127Z,20.85
2023-03-11T02:12:27.405Z,20.86
2023-03-11T02:13:31.661Z,20.85
2023-03-11T02:14:35.939Z,20.82
2023-03-11T02:15:40.319Z,20.81
2023-03-11T02:16:44.795Z,20.85
2023-03-11T02:17:49.075Z,20.86
2023-03-11T02:18:53.365Z,20.84
2023-03-11T02:19:57.705Z,20.82
2023-03-11T02:21:01.984Z,20.81
2023-03-11T02:22:06.295Z,20.81
2023-03-11T02:23:10.644Z,20.81
2023-03-11T02:24:15.016Z,20.81
2023-03-11T02:25:19.329Z,20.86
2023-03-11T02:26:23.779Z,20.85
2023-03-11T02:27:28.057Z,20.83
2023-03-11T02:28:32.344Z,20.8
2023-03-11T02:29:36.614Z,20.82
2023-03-11T02:30:40.914Z,20.81
2023-03-11T02:31:45.266Z,20.8
2023-03-11T02:32:49.690Z,20.81
2023-03-11T02:33:54.157Z,20.83
2023-03-11T02:34:58.446Z,20.79
2023-03-11T02:36:02.836Z,20.83
2023-03-11T02:37:07.233Z,20.84
2023-03-11T02:38:11.524Z,20.86
2023-03-11T02:39:15.808Z,20.85
2023-03-11T02:40:20.089Z,20.82
2023-03-11T02:41:24.377Z,20.8
2023-03-11T02:42:28.654Z,20.8
2023-03-11T02:43:32.943Z,20.8
2023-03-11T02:44:37.248Z,20.77
2023-03-11T02:45:41.516Z,20.78
2023-03-11T02:46:45.850Z,20.79
2023-03-11T02:47:50.296Z,20.8
2023-03-11T02:48:54.577Z,20.82
2023-03-11T02:49:58.814Z,20.81
2023-03-11T02:51:03.224Z,20.81
2023-03-11T02:52:07.536Z,20.79
2023-03-11T02:53:11.819Z,20.77
2023-03-11T02:54:16.056Z,20.75
2023-03-11T02:55:20.367Z,20.76
2023-03-11T02:56:24.648Z,20.73
2023-03-11T02:57:28.951Z,20.76
2023-03-11T02:58:33.227Z,20.76
2023-03-11T02:59:37.480Z,20.77
2023-03-11T03:00:41.827Z,20.76
2023-03-11T03:01:46.215Z,20.77
2023-03-11T03:02:50.543Z,20.79
2023-03-11T03:03:54.950Z,20.77
2023-03-11T03:04:59.331Z,20.76
2023-03-11T03:06:03.616Z,20.73
2023-03-11T03:07:07.881Z,20.71
2023-03-11T03:08:12.163Z,20.71
2023-03-11T03:09:16.549Z,20.72
2023-03-11T03:10:20.936Z,20.73
2023-03-11T03:11:25.215Z,20.71
2023-03-11T03:12:29.490Z,20.72
2023-03-11T03:13:33.765Z,20.72
2023-03-11T03:14:38.072Z,20.71
2023-03-11T03:15:42.393Z,20.69
2023-03-11T03:16:46.767Z,20.69
2023-03-11T03:17:51.435Z,20.71
2023-03-11T03:18:56.077Z,20.71
2023-03-11T03:20:00.338Z,20.73
2023-03-11T03:21:04.623Z,20.72
2023-03-11T03:22:08.893Z,20.72
2023-03-11T03:23:13.141Z,20.69
2023-03-11T03:24:17.387Z,20.68
2023-03-11T03:25:21.674Z,20.68
2023-03-11T03:26:25.975Z,20.69
2023-03-11T03:27:30.263Z,20.71
2023-03-11T03:28:34.583Z,20.74
2023-03-11T03:29:38.854Z,20.74
2023-03-11T03:30:43.137Z,20.74
2023-03-11T03:31:47.496Z,20.72
2023-03-11T03:32:51.931Z,20.72
2023-03-11T03:33:56.456Z,20.71
2023-03-11T03:35:00.763Z,20.72
2023-03-11T03:36:05.122Z,20.71
2023-03-11T03:37:09.655Z,20.74
2023-03-11T03:38:13.946Z,20.76
2023-03-11T03:39:18.214Z,20.71
2023-03-11T03:40:22.501Z,20.72
2023-03-11T03:41:26.797Z,20.75
2023-03-11T03:42:31.145Z,20.71
2023-03-11T03:43:35.430Z,20.71
2023-03-11T03:44:39.698Z,20.7
2023-03-11T03:45:44.063Z,20.73
2023-03-11T03:46:48.542Z,20.74
2023-03-11T03:47:52.838Z,20.75
2023-03-11T03:48:57.101Z,20.77
2023-03-11T03:50:01.460Z,20.75
2023-03-11T03:51:05.772Z,20.74
2023-03-11T03:52:10.080Z,20.74
2023-03-11T03:53:14.332Z,20.69
2023-03-11T03:54:18.632Z,20.67
2023-03-11T03:55:22.935Z,20.66
2023-03-11T03:56:27.275Z,20.69
2023-03-11T03:57:31.536Z,20.71
2023-03-11T03:58:35.903Z,20.67
2023-03-11T03:59:40.139Z,20.65
2023-03-11T04:00:44.477Z,20.64
2023-03-11T04:01:48.981Z,20.66
2023-03-11T04:02:53.410Z,20.67
2023-03-11T04:03:57.800Z,20.7
2023-03-11T04:05:02.070Z,20.68
2023-03-11T04:06:06.389Z,20.7
2023-03-11T04:07:10.690Z,20.7
2023-03-11T04:08:14.990Z,20.66
2023-03-11T04:09:19.288Z,20.68
2023-03-11T04:10:23.570Z,20.65
2023-03-11T04:11:27.905Z,20.69
2023-03-11T04:12:32.261Z,20.73
2023-03-11T04:13:36.537Z,20.74
2023-03-11T04:14:40.894Z,20.69
2023-03-11T04:15:45.180Z,20.7
2023-03-11T04:16:49.567Z,20.65
2023-03-11T04:17:54.098Z,20.63
2023-03-11T04:18:58.457Z,20.66
2023-03-11T04:20:02.737Z,20.68
2023-03-11T04:21:07.007Z,20.67
2023-03-11T04:22:11.293Z,20.66
2023-03-11T04:23:15.590Z,20.66
2023-03-11T04:24:19.852Z,20.67
2023-03-11T04:25:24.129Z,20.65
2023-03-11T04:26:28.440Z,20.63
2023-03-11T04:27:32.736Z,20.67
2023-03-11T04:28:36.985Z,20.66
2023-03-11T04:29:41.293Z,20.65
2023-03-11T04:30:45.574Z,20.61
2023-03-11T04:31:49.960Z,20.6
2023-03-11T04:32:54.298Z,20.63
2023-03-11T04:33:58.695Z,20.64
2023-03-11T04:35:03.020Z,20.65
2023-03-11T04:36:07.326Z,20.66
2023-03-11T04:37:13.992Z,20.69
2023-03-11T04:38:18.391Z,20.67
2023-03-11T04:39:22.678Z,20.65
2023-03-11T04:40:26.918Z,20.64
2023-03-11T04:41:31.389Z,20.61
2023-03-11T04:42:35.655Z,20.6
2023-03-11T04:43:39.952Z,20.6
2023-03-11T04:44:44.213Z,20.59
2023-03-11T04:45:48.487Z,20.57
2023-03-11T04:46:52.969Z,20.58
2023-03-11T04:47:57.301Z,20.59
2023-03-11T04:49:01.592Z,20.57
2023-03-11T04:50:05.870Z,20.57
2023-03-11T04:51:10.168Z,20.56
2023-03-11T04:52:14.458Z,20.56
2023-03-11T04:53:18.778Z,20.6
2023-03-11T04:54:23.094Z,20.6
2023-03-11T04:55:27.343Z,20.6
2023-03-11T04:56:31.729Z,20.6
2023-03-11T04:57:36.254Z,20.62
2023-03-11T04:58:40.540Z,20.63
2023-03-11T04:59:44.859Z,20.64
2023-03-11T05:00:49.139Z,20.64
2023-03-11T05:01:53.742Z,20.65
2023-03-11T05:02:58.126Z,20.66
2023-03-11T05:04:02.541Z,20.66
2023-03-11T05:05:06.828Z,20.67
2023-03-11T05:06:11.124Z,20.71
2023-03-11T05:07:15.397Z,20.78
2023-03-11T05:08:19.670Z,20.86
2023-03-11T05:09:23.931Z,20.95
2023-03-11T05:10:30.153Z,21.05
2023-03-11T05:11:35.620Z,21.17
2023-03-11T05:12:39.914Z,21.31
2023-03-11T05:13:44.174Z,21.4
2023-03-11T05:14:48.451Z,21.52
2023-03-11T05:15:52.783Z,21.61
2023-03-11T05:16:57.262Z,21.74
2023-03-11T05:18:01.569Z,21.83
2023-03-11T05:19:05.849Z,21.88
2023-03-11T05:20:10.111Z,21.94
2023-03-11T05:21:15.059Z,22
2023-03-11T05:22:19.326Z,22.03
2023-03-11T05:23:23.616Z,22.09
2023-03-11T05:24:27.921Z,22.11
2023-03-11T05:25:32.869Z,22.14
2023-03-11T05:26:37.199Z,22.15
2023-03-11T05:27:41.503Z,22.18
2023-03-11T05:28:45.794Z,22.22
2023-03-11T05:29:50.105Z,22.23
2023-03-11T05:30:54.443Z,22.25
2023-03-11T05:31:58.905Z,22.27
2023-03-11T05:33:03.225Z,22.3
2023-03-11T05:34:07.494Z,22.3
2023-03-11T05:35:11.803Z,22.26
2023-03-11T05:36:16.126Z,22.26
2023-03-11T05:37:20.416Z,22.25
2023-03-11T05:38:24.670Z,22.25
2023-03-11T05:39:28.932Z,22.25
2023-03-11T05:40:34.230Z,22.25
2023-03-11T05:41:38.606Z,22.24
2023-03-11T05:42:42.947Z,22.22
2023-03-11T05:43:47.334Z,22.19
2023-03-11T05:44:51.641Z,22.18
2023-03-11T05:45:55.933Z,22.18
2023-03-11T05:47:00.320Z,22.16
2023-03-11T05:48:04.991Z,22.14
2023-03-11T05:49:09.277Z,22.12
2023-03-11T05:50:13.549Z,22.09
2023-03-11T05:51:17.808Z,22.05
2023-03-11T05:52:22.095Z,22.02
2023-03-11T05:53:26.383Z,21.96
2023-03-11T05:54:30.674Z,21.94
2023-03-11T05:55:34.933Z,21.91
2023-03-11T05:56:39.245Z,21.9
2023-03-11T05:57:43.544Z,21.86
2023-03-11T05:58:47.878Z,21.85
2023-03-11T05:59:52.152Z,21.81
2023-03-11T06:00:56.430Z,21.78
2023-03-11T06:02:03.073Z,21.76
2023-03-11T06:03:07.357Z,21.75
2023-03-11T06:04:11.886Z,21.73
2023-03-11T06:05:16.708Z,21.71
2023-03-11T06:06:21.449Z,21.67
2023-03-11T06:07:25.801Z,21.66
2023-03-11T06:08:30.116Z,21.63
2023-03-11T06:09:34.405Z,21.61
2023-03-11T06:10:38.709Z,21.6
2023-03-11T06:11:42.997Z,21.58
2023-03-11T06:12:47.321Z,21.55
2023-03-11T06:13:51.587Z,21.53
2023-03-11T06:14:55.828Z,21.5
2023-03-11T06:16:00.172Z,21.49
2023-03-11T06:17:04.540Z,21.48
2023-03-11T06:18:08.823Z,21.47
2023-03-11T06:19:13.091Z,21.47
2023-03-11T06:20:17.347Z,21.47
2023-03-11T06:21:21.794Z,21.45
2023-03-11T06:22:26.047Z,21.46
2023-03-11T06:23:30.300Z,21.43
2023-03-11T06:24:34.593Z,21.43
2023-03-11T06:25:38.878Z,21.41
2023-03-11T06:26:43.211Z,21.41
2023-03-11T06:27:47.544Z,21.4
2023-03-11T06:28:51.823Z,21.38
2023-03-11T06:29:56.100Z,21.4
2023-03-11T06:31:00.341Z,21.38
2023-03-11T06:32:04.615Z,21.38
2023-03-11T06:33:08.871Z,21.4
2023-03-11T06:34:13.150Z,21.37
2023-03-11T06:35:17.433Z,21.35
2023-03-11T06:36:21.719Z,21.33
2023-03-11T06:37:26.030Z,21.3
2023-03-11T06:38:30.272Z,21.3
2023-03-11T06:39:34.600Z,21.28
2023-03-11T06:40:38.870Z,21.28
2023-03-11T06:41:43.117Z,21.27
2023-03-11T06:42:47.378Z,21.28
2023-03-11T06:43:51.643Z,21.27
2023-03-11T06:44:55.930Z,21.29
2023-03-11T06:46:00.285Z,21.32
2023-03-11T06:47:04.763Z,21.35
2023-03-11T06:48:09.064Z,21.4
2023-03-11T06:49:13.344Z,21.43
2023-03-11T06:50:17.597Z,21.44
2023-03-11T06:51:21.896Z,21.47
2023-03-11T06:52:26.180Z,21.51
2023-03-11T06:53:30.470Z,21.54
2023-03-11T06:54:34.761Z,21.56
2023-03-11T06:55:39.063Z,21.56
2023-03-11T06:56:43.319Z,21.57
2023-03-11T06:57:47.589Z,21.56
2023-03-11T06:58:51.838Z,21.57
2023-03-11T06:59:56.113Z,21.6
2023-03-11T07:01:00.463Z,21.62
2023-03-11T07:02:05.047Z,21.62
2023-03-11T07:03:09.428Z,21.63
2023-03-11T07:04:13.768Z,21.64
2023-03-11T07:05:18.307Z,21.64
2023-03-11T07:06:22.672Z,21.63
2023-03-11T07:07:26.952Z,21.62
2023-03-11T07:08:31.230Z,21.63
2023-03-11T07:09:35.519Z,21.61
2023-03-11T07:10:39.792Z,21.59
2023-03-11T07:11:44.131Z,21.6
2023-03-11T07:12:48.426Z,21.65
2023-03-11T07:13:52.728Z,21.68
2023-03-11T07:14:59.471Z,21.74
2023-03-11T07:16:03.740Z,21.74
2023-03-11T07:17:08.336Z,21.8
2023-03-11T07:18:12.624Z,21.79
2023-03-11T07:19:17.798Z,21.74
2023-03-11T07:20:25.142Z,21.67
2023-03-11T07:21:29.432Z,21.62
2023-03-11T07:22:33.707Z,21.57
2023-03-11T07:23:38.019Z,21.55
2023-03-11T07:24:42.465Z,21.51
2023-03-11T07:25:46.796Z,21.5
2023-03-11T07:26:51.079Z,21.47
2023-03-11T07:27:55.323Z,21.43
2023-03-11T07:28:59.624Z,21.42
2023-03-11T07:30:03.894Z,21.4
2023-03-11T07:31:08.206Z,21.41
2023-03-11T07:32:12.591Z,21.36
2023-03-11T07:33:17.744Z,21.37
2023-03-11T07:34:22.083Z,21.33
2023-03-11T07:35:26.356Z,21.32
2023-03-11T07:36:30.865Z,21.26
2023-03-11T07:37:35.146Z,21.28
2023-03-11T07:38:40.573Z,21.27
2023-03-11T07:39:45.423Z,21.27
2023-03-11T07:40:49.671Z,21.31
2023-03-11T07:41:54.206Z,21.37
2023-03-11T07:42:58.454Z,21.4
2023-03-11T07:44:02.705Z,21.38
2023-03-11T07:45:07.080Z,21.4
2023-03-11T07:46:11.406Z,21.45
2023-03-11T07:47:16.448Z,21.47
2023-03-11T07:48:20.754Z,21.47
2023-03-11T07:49:25.052Z,21.47
2023-03-11T07:50:29.731Z,21.45
2023-03-11T07:51:34.028Z,21.43
2023-03-11T07:52:38.340Z,21.44
2023-03-11T07:53:42.659Z,21.42
2023-03-11T07:54:46.915Z,21.42
2023-03-11T07:55:51.200Z,21.42
2023-03-11T07:56:55.445Z,21.42
2023-03-11T07:57:59.720Z,21.48
2023-03-11T07:59:04.224Z,21.45
2023-03-11T08:00:08.559Z,21.41
2023-03-11T08:01:12.862Z,21.45
2023-03-11T08:02:17.198Z,21.48
2023-03-11T08:03:21.573Z,21.52
2023-03-11T08:04:26.035Z,21.54
2023-03-11T08:05:30.469Z,21.6
2023-03-11T08:06:34.766Z,21.64
2023-03-11T08:07:39.192Z,21.69
2023-03-11T08:08:45.756Z,21.7
2023-03-11T08:09:50.033Z,21.74
2023-03-11T08:10:54.310Z,21.75
2023-03-11T08:11:58.582Z,21.82
2023-03-11T08:13:02.855Z,21.84
2023-03-11T08:14:07.109Z,21.83
2023-03-11T08:15:11.398Z,21.83
2023-03-11T08:16:15.710Z,21.86
2023-03-11T08:17:20.030Z,21.86
2023-03-11T08:18:24.328Z,21.88
2023-03-11T08:19:28.646Z,21.88
2023-03-11T08:20:32.908Z,21.87
2023-03-11T08:21:37.179Z,21.85
2023-03-11T08:22:52.054Z,21.87
2023-03-11T08:24:02.254Z,21.84
2023-03-11T08:25:09.465Z,21.93
2023-03-11T08:26:13.722Z,21.92
2023-03-11T08:27:18.124Z,21.91
2023-03-11T08:28:22.404Z,21.89
2023-03-11T08:29:26.682Z,21.85
2023-03-11T08:30:30.969Z,21.81
2023-03-11T08:31:35.356Z,21.82
2023-03-11T08:32:39.915Z,21.8
2023-03-11T08:33:44.415Z,21.78
2023-03-11T08:34:49.236Z,21.77
2023-03-11T08:35:53.851Z,21.76
2023-03-11T08:36:58.564Z,21.78
2023-03-11T08:38:02.957Z,21.77
2023-03-11T08:39:07.284Z,21.74
2023-03-11T08:40:11.738Z,21.72
2023-03-11T08:41:16.021Z,21.7
2023-03-11T08:42:20.297Z,21.71
2023-03-11T08:43:24.622Z,21.67
2023-03-11T08:44:29.003Z,21.68
2023-03-11T08:45:33.390Z,21.73
2023-03-11T08:46:37.884Z,21.84
2023-03-11T08:47:42.398Z,21.86
2023-03-11T08:48:46.661Z,21.98
2023-03-11T08:49:50.931Z,21.99
2023-03-11T08:50:55.165Z,21.91
2023-03-11T08:51:59.390Z,21.85
2023-03-11T08:53:03.711Z,21.79
2023-03-11T08:54:07.957Z,21.81
2023-03-11T08:55:12.263Z,21.78
2023-03-11T08:56:16.724Z,21.75
2023-03-11T08:57:21.050Z,21.71
2023-03-11T08:58:25.351Z,21.64
2023-03-11T08:59:29.653Z,21.57
2023-03-11T09:00:33.932Z,21.52
2023-03-11T09:01:38.221Z,21.48
2023-03-11T09:02:42.585Z,21.44
2023-03-11T09:03:47.065Z,21.42
2023-03-11T09:04:51.541Z,21.33
2023-03-11T09:05:56.005Z,21.38
2023-03-11T09:07:00.579Z,21.39
2023-03-11T09:08:05.674Z,21.37
2023-03-11T09:09:10.078Z,21.34
2023-03-11T09:10:14.380Z,21.32
2023-03-11T09:11:18.919Z,21.33
2023-03-11T09:12:23.184Z,21.32
2023-03-11T09:13:27.419Z,21.34
2023-03-11T09:14:31.733Z,21.35
2023-03-11T09:15:36.004Z,21.37
2023-03-11T09:16:40.279Z,21.39
2023-03-11T09:17:44.548Z,21.45
2023-03-11T09:18:48.836Z,21.5
2023-03-11T09:19:53.141Z,21.52
2023-03-11T09:20:57.438Z,21.55
2023-03-11T09:22:01.836Z,21.59
2023-03-11T09:23:06.103Z,21.6
2023-03-11T09:24:10.344Z,21.65
2023-03-11T09:25:14.596Z,21.64
2023-03-11T09:26:18.873Z,21.67
2023-03-11T09:27:23.184Z,21.69
2023-03-11T09:28:27.463Z,21.72
2023-03-11T09:29:31.874Z,21.73
2023-03-11T09:30:37.187Z,21.86
2023-03-11T09:31:44.652Z,21.81
2023-03-11T09:32:49.091Z,21.83
2023-03-11T09:33:53.925Z,21.84
2023-03-11T09:34:58.166Z,21.84
2023-03-11T09:36:02.513Z,21.85
2023-03-11T09:37:07.068Z,21.84
2023-03-11T09:38:11.347Z,21.84
2023-03-11T09:39:15.684Z,21.82
2023-03-11T09:40:19.944Z,21.79
2023-03-11T09:41:24.217Z,21.8
2023-03-11T09:42:28.480Z,21.8
2023-03-11T09:43:32.768Z,21.8
2023-03-11T09:44:37.058Z,21.79
2023-03-11T09:45:41.319Z,21.79
2023-03-11T09:46:45.651Z,21.79
2023-03-11T09:47:51.065Z,21.79
2023-03-11T09:48:55.357Z,21.79
2023-03-11T09:49:59.660Z,21.79
2023-03-11T09:51:03.973Z,21.79
2023-03-11T09:52:08.276Z,21.79
2023-03-11T09:53:12.867Z,21.79
2023-03-11T09:54:17.124Z,21.8
2023-03-11T09:55:21.435Z,21.8
2023-03-11T09:56:25.699Z,21.79
2023-03-11T09:57:29.993Z,21.78
2023-03-11T09:58:34.259Z,21.78
2023-03-11T09:59:38.511Z,21.79
2023-03-11T10:00:42.801Z,21.8
2023-03-11T10:01:48.135Z,21.8
2023-03-11T10:02:52.582Z,21.8
2023-03-11T10:03:57.482Z,21.81
2023-03-11T10:05:01.781Z,21.79
2023-03-11T10:06:06.101Z,21.79
2023-03-11T10:07:10.429Z,21.8
2023-03-11T10:08:14.736Z,21.78
2023-03-11T10:09:21.294Z,21.77
2023-03-11T10:10:25.567Z,21.78
2023-03-11T10:11:29.824Z,21.79
2023-03-11T10:12:34.089Z,21.79
2023-03-11T10:13:38.390Z,21.79
2023-03-11T10:14:42.642Z,21.8
2023-03-11T10:15:47.016Z,21.81
2023-03-11T10:16:51.347Z,21.79
2023-03-11T10:17:55.711Z,21.79
2023-03-11T10:19:00.054Z,21.79
2023-03-11T10:20:04.336Z,21.79
2023-03-11T10:21:08.861Z,21.81
2023-03-11T10:22:13.117Z,21.8
2023-03-11T10:23:17.534Z,21.8
2023-03-11T10:24:22.067Z,21.82
2023-03-11T10:25:26.358Z,21.83
2023-03-11T10:26:30.624Z,21.82
2023-03-11T10:27:34.967Z,21.82
2023-03-11T10:28:39.297Z,21.83
2023-03-11T10:29:43.557Z,21.82
2023-03-11T10:30:47.924Z,21.83
2023-03-11T10:31:52.483Z,21.84
2023-03-11T10:32:57.023Z,21.84
2023-03-11T10:34:01.407Z,21.85
2023-03-11T10:35:05.678Z,21.87
2023-03-11T10:36:09.950Z,21.89
2023-03-11T10:37:14.409Z,21.91
2023-03-11T10:38:18.709Z,21.94
2023-03-11T10:39:23.037Z,21.99
2023-03-11T10:40:27.513Z,22.01
2023-03-11T10:41:31.828Z,22.06
2023-03-11T10:42:36.081Z,22.07
2023-03-11T10:43:40.358Z,22.09
2023-03-11T10:44:44.632Z,22.11
2023-03-11T10:45:48.972Z,22.1
2023-03-11T10:46:55.850Z,22.1
2023-03-11T10:48:00.179Z,22.11
2023-03-11T10:49:04.513Z,22.13
2023-03-11T10:50:08.880Z,22.15
2023-03-11T10:51:13.196Z,22.13
2023-03-11T10:52:17.548Z,22.14
2023-03-11T10:53:22.857Z,22.15
2023-03-11T10:54:27.175Z,22.16
2023-03-11T10:55:31.458Z,22.17
2023-03-11T10:56:36.238Z,22.17
2023-03-11T10:57:40.504Z,22.15
2023-03-11T10:58:44.779Z,22.15
2023-03-11T10:59:49.115Z,22.13
2023-03-11T11:00:58.249Z,22.12
2023-03-11T11:02:02.720Z,22.14
2023-03-11T11:03:07.039Z,22.12
2023-03-11T11:04:11.408Z,22.1
2023-03-11T11:05:15.932Z,22.1
2023-03-11T11:06:20.307Z,22.1
2023-03-11T11:07:24.601Z,22.09
2023-03-11T11:08:29.017Z,22.08
2023-03-11T11:09:33.288Z,22.07
2023-03-11T11:10:37.564Z,22.06
2023-03-11T11:11:41.812Z,22.06
2023-03-11T11:12:46.111Z,22.06
2023-03-11T11:13:50.423Z,22.05
2023-03-11T11:14:54.725Z,22.06
2023-03-11T11:15:59.007Z,22.03
2023-03-11T11:17:03.318Z,22.04
2023-03-11T11:18:07.638Z,22.03
2023-03-11T11:19:11.955Z,22.04
2023-03-11T11:20:16.246Z,22.03
2023-03-11T11:21:20.604Z,22.02
2023-03-11T11:22:24.924Z,22.03
2023-03-11T11:23:29.196Z,22.02
2023-03-11T11:24:33.496Z,22.02
2023-03-11T11:25:37.775Z,22.01
2023-03-11T11:26:42.076Z,22
2023-03-11T11:27:46.332Z,22
2023-03-11T11:28:50.728Z,21.98
2023-03-11T11:29:55.029Z,22
2023-03-11T11:30:59.371Z,21.98
2023-03-11T11:32:03.849Z,21.99
2023-03-11T11:33:08.192Z,22
2023-03-11T11:34:12.503Z,22
2023-03-11T11:35:16.772Z,22.01
2023-03-11T11:36:21.137Z,21.98
2023-03-11T11:37:25.393Z,21.94
2023-03-11T11:38:29.650Z,21.91
2023-03-11T11:39:33.955Z,21.88
2023-03-11T11:40:38.219Z,21.86
2023-03-11T11:41:42.480Z,21.84
2023-03-11T11:42:49.045Z,21.82
2023-03-11T11:43:54.318Z,21.82
2023-03-11T11:44:58.596Z,21.8
2023-03-11T11:46:02.928Z,21.77
2023-03-11T11:47:07.330Z,21.74
2023-03-11T11:48:11.692Z,21.75
2023-03-11T11:49:15.973Z,21.75
2023-03-11T11:50:20.267Z,21.72
2023-03-11T11:51:24.562Z,21.72
2023-03-11T11:52:28.868Z,21.7
2023-03-11T11:53:33.172Z,21.68
2023-03-11T11:54:37.743Z,21.66
2023-03-11T11:55:43.026Z,21.67
2023-03-11T11:56:47.326Z,21.65
2023-03-11T11:57:51.604Z,21.65
2023-03-11T11:58:55.870Z,21.62
2023-03-11T12:00:00.172Z,21.6
2023-03-11T12:01:05.043Z,21.6
2023-03-11T12:02:09.290Z,21.57
2023-03-11T12:03:13.882Z,21.58
2023-03-11T12:04:18.274Z,21.57
2023-03-11T12:05:22.628Z,21.56
2023-03-11T12:06:27.097Z,21.56
2023-03-11T12:07:31.922Z,21.54
2023-03-11T12:08:36.224Z,21.56
2023-03-11T12:09:40.478Z,21.57
2023-03-11T12:10:44.748Z,21.53
2023-03-11T12:11:49.071Z,21.52
2023-03-11T12:12:53.333Z,21.49
2023-03-11T12:13:57.599Z,21.48
2023-03-11T12:15:01.909Z,21.47
2023-03-11T12:16:06.200Z,21.47
2023-03-11T12:17:10.775Z,21.45
2023-03-11T12:18:15.061Z,21.43
2023-03-11T12:19:19.373Z,21.44
2023-03-11T12:20:23.653Z,21.43
2023-03-11T12:21:27.947Z,21.43
2023-03-11T12:22:32.263Z,21.44
2023-03-11T12:23:36.531Z,21.42
2023-03-11T12:24:40.796Z,21.4
2023-03-11T12:25:45.070Z,21.41
2023-03-11T12:26:49.347Z,21.42
2023-03-11T12:27:53.584Z,21.38
2023-03-11T12:28:58.932Z,21.38
2023-03-11T12:30:03.191Z,21.36
2023-03-11T12:31:07.502Z,21.36
2023-03-11T12:32:12.046Z,21.37
2023-03-11T12:33:16.477Z,21.36
2023-03-11T12:34:20.768Z,21.36
2023-03-11T12:35:25.090Z,21.38
2023-03-11T12:36:29.378Z,21.37
2023-03-11T12:37:33.669Z,21.39
2023-03-11T12:38:37.968Z,21.4
2023-03-11T12:39:42.271Z,21.38
2023-03-11T12:40:46.676Z,21.36
2023-03-11T12:41:50.978Z,21.37
2023-03-11T12:42:55.227Z,21.4
2023-03-11T12:43:59.514Z,21.38
2023-03-11T12:45:03.808Z,21.4
2023-03-11T12:46:08.089Z,21.37
2023-03-11T12:47:15.100Z,21.38
2023-03-11T12:48:19.399Z,21.36
2023-03-11T12:49:23.685Z,21.4
2023-03-11T12:50:28.009Z,21.4
2023-03-11T12:51:32.344Z,21.41
2023-03-11T12:52:39.640Z,21.41
2023-03-11T12:53:43.885Z,21.44
2023-03-11T12:54:48.187Z,21.41
2023-03-11T12:55:52.444Z,21.44
2023-03-11T12:56:57.743Z,21.42
2023-03-11T12:58:02.078Z,21.46
2023-03-11T12:59:06.377Z,21.46
2023-03-11T13:00:10.671Z,21.48
2023-03-11T13:01:15.205Z,21.5
2023-03-11T13:02:19.496Z,21.48
2023-03-11T13:03:23.768Z,21.44
2023-03-11T13:04:28.057Z,21.45
2023-03-11T13:05:32.425Z,21.49
2023-03-11T13:06:36.725Z,21.5
2023-03-11T13:07:40.990Z,21.49
2023-03-11T13:08:45.240Z,21.48
2023-03-11T13:09:49.535Z,21.45
2023-03-11T13:10:53.852Z,21.44
2023-03-11T13:11:58.130Z,21.42
2023-03-11T13:13:02.400Z,21.44
2023-03-11T13:14:06.694Z,21.44
2023-03-11T13:15:11.121Z,21.44
2023-03-11T13:16:15.489Z,21.42
2023-03-11T13:17:19.909Z,21.4
2023-03-11T13:18:24.253Z,21.39
2023-03-11T13:19:28.554Z,21.39
2023-03-11T13:20:32.940Z,21.36
2023-03-11T13:21:37.230Z,21.34
2023-03-11T13:22:41.490Z,21.35
2023-03-11T13:23:45.823Z,21.32
2023-03-11T13:24:50.356Z,21.34
2023-03-11T13:25:54.923Z,21.34
2023-03-11T13:26:59.201Z,21.32
2023-03-11T13:28:06.979Z,21.32
2023-03-11T13:29:11.275Z,21.33
2023-03-11T13:30:15.556Z,21.31
2023-03-11T13:31:19.963Z,21.33
2023-03-11T13:32:24.502Z,21.34
2023-03-11T13:33:32.017Z,21.34
2023-03-11T13:34:36.326Z,21.33
2023-03-11T13:35:40.663Z,21.34
2023-03-11T13:36:45.062Z,21.33
2023-03-11T13:37:50.704Z,21.34
2023-03-11T13:38:55.395Z,21.38
2023-03-11T13:39:59.734Z,21.37
2023-03-11T13:41:04.001Z,21.43
2023-03-11T13:42:11.263Z,21.47
2023-03-11T13:43:15.516Z,21.52
2023-03-11T13:44:19.907Z,21.61
2023-03-11T13:45:24.366Z,21.71
2023-03-11T13:46:28.904Z,21.82
2023-03-11T13:47:33.185Z,21.91
2023-03-11T13:48:37.686Z,22.02
2023-03-11T13:49:42.055Z,22.09
2023-03-11T13:50:46.354Z,22.19
2023-03-11T13:51:50.615Z,22.28
2023-03-11T13:52:54.949Z,22.36
2023-03-11T13:53:59.215Z,22.39